sensor_id;sensor_type;location;lat;lon;timestamp;temperature;humidity
19330;DHT22;9799;48.214;16.388;2022-11-14T00:00:25;7.60;99.90
19330;DHT22;9799;48.214;16.388;2022-11-14T00:03:48;7.60;99.90
19330;DHT22;9799;48.214;16.388;2022-11-14T00:07:10;7.60;99.90
19330;DHT22;9799;48.214;16.388;2022-11-14T00:10:31;7.60;99.90
19330;DHT22;9799;48.214;16.388;2022-11-14T00:13:53;7.60;99.90
19330;DHT22;9799;48.214;16.388;2022-11-14T00:17:15;7.60;99.90
19330;DHT22;9799;48.214;16.388;2022-11-14T00:20:36;7.60;99.90
19330;DHT22;9799;48.214;16.388;2022-11-14T00:23:57;7.60;99.90
19330;DHT22;9799;48.214;16.388;2022-11-14T00:27:19;7.60;99.90
19330;DHT22;9799;48.214;16.388;2022-11-14T00:30:40;7.60;99.90
19330;DHT22;9799;48.214;16.388;2022-11-14T00:34:02;7.60;99.90
19330;DHT22;9799;48.214;16.388;2022-11-14T00:37:33;7.50;99.90
19330;DHT22;9799;48.214;16.388;2022-11-14T00:40:54;7.50;99.90
19330;DHT22;9799;48.214;16.388;2022-11-14T00:44:15;7.50;99.90
19330;DHT22;9799;48.214;16.388;2022-11-14T00:47:37;7.50;99.90
19330;DHT22;9799;48.214;16.388;2022-11-14T00:50:59;7.40;99.90
19330;DHT22;9799;48.214;16.388;2022-11-14T00:54:21;7.40;99.90
19330;DHT22;9799;48.214;16.388;2022-11-14T00:57:42;7.50;99.90
19330;DHT22;9799;48.214;16.388;2022-11-14T01:01:03;7.50;99.90
19330;DHT22;9799;48.214;16.388;2022-11-14T01:04:24;7.50;99.90
19330;DHT22;9799;48.214;16.388;2022-11-14T01:07:47;7.60;99.90
19330;DHT22;9799;48.214;16.388;2022-11-14T01:11:09;7.60;99.90
19330;DHT22;9799;48.214;16.388;2022-11-14T01:14:31;7.70;99.90
19330;DHT22;9799;48.214;16.388;2022-11-14T01:17:52;7.70;99.90
19330;DHT22;9799;48.214;16.388;2022-11-14T01:21:13;7.70;99.90
19330;DHT22;9799;48.214;16.388;2022-11-14T01:24:36;7.60;99.90
19330;DHT22;9799;48.214;16.388;2022-11-14T01:27:57;7.60;99.90
19330;DHT22;9799;48.214;16.388;2022-11-14T01:31:20;7.60;99.90
19330;DHT22;9799;48.214;16.388;2022-11-14T01:34:42;7.60;99.90
19330;DHT22;9799;48.214;16.388;2022-11-14T01:38:04;7.50;99.90
19330;DHT22;9799;48.214;16.388;2022-11-14T01:41:27;7.60;99.90
19330;DHT22;9799;48.214;16.388;2022-11-14T01:44:50;7.60;99.90
19330;DHT22;9799;48.214;16.388;2022-11-14T01:48:18;7.60;99.90
19330;DHT22;9799;48.214;16.388;2022-11-14T01:51:42;7.60;99.90
19330;DHT22;9799;48.214;16.388;2022-11-14T01:55:07;7.60;99.90
19330;DHT22;9799;48.214;16.388;2022-11-14T01:58:30;7.70;99.90
19330;DHT22;9799;48.214;16.388;2022-11-14T02:01:54;7.70;99.90
19330;DHT22;9799;48.214;16.388;2022-11-14T02:05:17;7.60;99.90
19330;DHT22;9799;48.214;16.388;2022-11-14T02:08:39;7.60;99.90
19330;DHT22;9799;48.214;16.388;2022-11-14T02:12:02;7.60;99.90
19330;DHT22;9799;48.214;16.388;2022-11-14T02:15:25;7.60;99.90
19330;DHT22;9799;48.214;16.388;2022-11-14T02:18:46;7.60;99.90
19330;DHT22;9799;48.214;16.388;2022-11-14T02:22:09;7.60;99.90
19330;DHT22;9799;48.214;16.388;2022-11-14T02:25:30;7.50;99.90
19330;DHT22;9799;48.214;16.388;2022-11-14T02:28:52;7.60;99.90
19330;DHT22;9799;48.214;16.388;2022-11-14T02:32:15;7.60;99.90
19330;DHT22;9799;48.214;16.388;2022-11-14T02:35:36;7.60;99.90
19330;DHT22;9799;48.214;16.388;2022-11-14T02:38:58;7.60;99.90
19330;DHT22;9799;48.214;16.388;2022-11-14T02:42:20;7.60;99.90
19330;DHT22;9799;48.214;16.388;2022-11-14T02:45:41;7.70;99.90
19330;DHT22;9799;48.214;16.388;2022-11-14T02:49:02;7.70;99.90
19330;DHT22;9799;48.214;16.388;2022-11-14T02:52:23;7.70;99.90
19330;DHT22;9799;48.214;16.388;2022-11-14T02:55:46;7.60;99.90
19330;DHT22;9799;48.214;16.388;2022-11-14T02:59:07;7.70;99.90
19330;DHT22;9799;48.214;16.388;2022-11-14T03:02:28;7.60;99.90
19330;DHT22;9799;48.214;16.388;2022-11-14T03:05:49;7.60;99.90
19330;DHT22;9799;48.214;16.388;2022-11-14T03:09:12;7.60;99.90
19330;DHT22;9799;48.214;16.388;2022-11-14T03:12:34;7.80;99.90
19330;DHT22;9799;48.214;16.388;2022-11-14T03:15:56;7.80;99.90
19330;DHT22;9799;48.214;16.388;2022-11-14T03:19:17;7.70;99.90
19330;DHT22;9799;48.214;16.388;2022-11-14T03:22:38;7.70;99.90
19330;DHT22;9799;48.214;16.388;2022-11-14T03:26:00;7.60;99.90
19330;DHT22;9799;48.214;16.388;2022-11-14T03:29:23;7.80;99.90
19330;DHT22;9799;48.214;16.388;2022-11-14T03:32:44;7.90;99.90
19330;DHT22;9799;48.214;16.388;2022-11-14T03:36:06;7.90;99.90
19330;DHT22;9799;48.214;16.388;2022-11-14T03:39:27;7.90;99.90
19330;DHT22;9799;48.214;16.388;2022-11-14T03:42:48;7.70;99.90
19330;DHT22;9799;48.214;16.388;2022-11-14T03:46:11;7.70;99.90
19330;DHT22;9799;48.214;16.388;2022-11-14T03:49:32;7.80;99.90
19330;DHT22;9799;48.214;16.388;2022-11-14T03:52:53;7.70;99.90
19330;DHT22;9799;48.214;16.388;2022-11-14T03:56:14;7.80;99.90
19330;DHT22;9799;48.214;16.388;2022-11-14T03:59:35;7.80;99.90
19330;DHT22;9799;48.214;16.388;2022-11-14T04:02:58;7.70;99.90
19330;DHT22;9799;48.214;16.388;2022-11-14T04:06:19;7.80;99.90
19330;DHT22;9799;48.214;16.388;2022-11-14T04:09:40;7.80;99.90
19330;DHT22;9799;48.214;16.388;2022-11-14T04:13:04;7.80;99.90
19330;DHT22;9799;48.214;16.388;2022-11-14T04:16:25;7.80;99.90
19330;DHT22;9799;48.214;16.388;2022-11-14T04:19:48;7.80;99.90
19330;DHT22;9799;48.214;16.388;2022-11-14T04:23:09;7.70;99.90
19330;DHT22;9799;48.214;16.388;2022-11-14T04:26:30;7.70;99.90
19330;DHT22;9799;48.214;16.388;2022-11-14T04:29:51;7.80;99.90
19330;DHT22;9799;48.214;16.388;2022-11-14T04:33:12;7.80;99.90
19330;DHT22;9799;48.214;16.388;2022-11-14T04:36:35;7.80;99.90
19330;DHT22;9799;48.214;16.388;2022-11-14T04:39:56;7.70;99.90
19330;DHT22;9799;48.214;16.388;2022-11-14T04:43:19;7.70;99.90
19330;DHT22;9799;48.214;16.388;2022-11-14T04:46:41;7.80;99.90
19330;DHT22;9799;48.214;16.388;2022-11-14T04:50:02;7.70;99.90
19330;DHT22;9799;48.214;16.388;2022-11-14T04:53:25;7.70;99.90
19330;DHT22;9799;48.214;16.388;2022-11-14T04:56:46;7.80;99.90
19330;DHT22;9799;48.214;16.388;2022-11-14T05:00:09;7.80;99.90
19330;DHT22;9799;48.214;16.388;2022-11-14T05:03:30;7.80;99.90
19330;DHT22;9799;48.214;16.388;2022-11-14T05:06:51;7.80;99.90
19330;DHT22;9799;48.214;16.388;2022-11-14T05:10:14;7.70;99.90
19330;DHT22;9799;48.214;16.388;2022-11-14T05:13:35;7.70;99.90
19330;DHT22;9799;48.214;16.388;2022-11-14T05:16:56;7.60;99.90
19330;DHT22;9799;48.214;16.388;2022-11-14T05:20:18;7.60;99.90
19330;DHT22;9799;48.214;16.388;2022-11-14T05:23:39;7.50;99.90
19330;DHT22;9799;48.214;16.388;2022-11-14T05:27:02;7.50;99.90
19330;DHT22;9799;48.214;16.388;2022-11-14T05:30:23;7.50;99.90
19330;DHT22;9799;48.214;16.388;2022-11-14T05:33:44;7.60;99.90
19330;DHT22;9799;48.214;16.388;2022-11-14T05:37:06;7.50;99.90
19330;DHT22;9799;48.214;16.388;2022-11-14T05:40:27;7.40;99.90
19330;DHT22;9799;48.214;16.388;2022-11-14T05:43:50;7.40;99.90
19330;DHT22;9799;48.214;16.388;2022-11-14T05:47:11;7.30;99.90
19330;DHT22;9799;48.214;16.388;2022-11-14T05:50:32;7.30;99.90
19330;DHT22;9799;48.214;16.388;2022-11-14T05:53:54;7.30;99.90
19330;DHT22;9799;48.214;16.388;2022-11-14T05:57:15;7.30;99.90
19330;DHT22;9799;48.214;16.388;2022-11-14T06:00:37;7.40;99.90
19330;DHT22;9799;48.214;16.388;2022-11-14T06:03:58;7.60;99.90
19330;DHT22;9799;48.214;16.388;2022-11-14T06:07:20;7.70;99.90
19330;DHT22;9799;48.214;16.388;2022-11-14T06:10:41;7.70;99.90
19330;DHT22;9799;48.214;16.388;2022-11-14T06:14:02;7.70;99.90
19330;DHT22;9799;48.214;16.388;2022-11-14T06:17:25;7.60;99.90
19330;DHT22;9799;48.214;16.388;2022-11-14T06:20:46;7.60;99.90
19330;DHT22;9799;48.214;16.388;2022-11-14T06:24:07;7.80;99.90
19330;DHT22;9799;48.214;16.388;2022-11-14T06:27:29;7.70;99.90
19330;DHT22;9799;48.214;16.388;2022-11-14T06:30:50;7.70;99.90
19330;DHT22;9799;48.214;16.388;2022-11-14T06:34:12;7.70;99.90
19330;DHT22;9799;48.214;16.388;2022-11-14T06:37:34;7.60;99.90
19330;DHT22;9799;48.214;16.388;2022-11-14T06:41:01;7.70;99.90
19330;DHT22;9799;48.214;16.388;2022-11-14T06:44:22;7.70;99.90
19330;DHT22;9799;48.214;16.388;2022-11-14T06:47:44;7.70;99.90
19330;DHT22;9799;48.214;16.388;2022-11-14T06:51:07;7.70;99.90
19330;DHT22;9799;48.214;16.388;2022-11-14T06:54:29;7.70;99.90
19330;DHT22;9799;48.214;16.388;2022-11-14T06:57:52;7.80;99.90
19330;DHT22;9799;48.214;16.388;2022-11-14T07:01:16;7.80;99.90
19330;DHT22;9799;48.214;16.388;2022-11-14T07:04:37;7.80;99.90
19330;DHT22;9799;48.214;16.388;2022-11-14T07:08:00;7.70;99.90
19330;DHT22;9799;48.214;16.388;2022-11-14T07:11:23;7.80;99.90
19330;DHT22;9799;48.214;16.388;2022-11-14T07:14:45;7.90;99.90
19330;DHT22;9799;48.214;16.388;2022-11-14T07:18:06;7.80;99.90
19330;DHT22;9799;48.214;16.388;2022-11-14T07:21:29;8.00;99.90
19330;DHT22;9799;48.214;16.388;2022-11-14T07:24:51;7.80;99.90
19330;DHT22;9799;48.214;16.388;2022-11-14T07:28:13;7.80;99.90
19330;DHT22;9799;48.214;16.388;2022-11-14T07:31:34;7.80;99.90
19330;DHT22;9799;48.214;16.388;2022-11-14T07:34:55;7.90;99.90
19330;DHT22;9799;48.214;16.388;2022-11-14T07:38:16;7.90;99.90
19330;DHT22;9799;48.214;16.388;2022-11-14T07:41:39;8.00;99.90
19330;DHT22;9799;48.214;16.388;2022-11-14T07:45:00;7.90;99.90
19330;DHT22;9799;48.214;16.388;2022-11-14T07:48:21;8.10;99.90
19330;DHT22;9799;48.214;16.388;2022-11-14T07:51:43;8.20;99.90
19330;DHT22;9799;48.214;16.388;2022-11-14T07:55:05;8.20;99.90
19330;DHT22;9799;48.214;16.388;2022-11-14T07:58:29;8.20;99.90
19330;DHT22;9799;48.214;16.388;2022-11-14T08:01:50;8.20;99.90
19330;DHT22;9799;48.214;16.388;2022-11-14T08:05:11;8.30;99.90
19330;DHT22;9799;48.214;16.388;2022-11-14T08:08:33;8.30;99.90
19330;DHT22;9799;48.214;16.388;2022-11-14T08:11:54;8.40;99.90
19330;DHT22;9799;48.214;16.388;2022-11-14T08:15:17;8.70;99.90
19330;DHT22;9799;48.214;16.388;2022-11-14T08:18:39;8.90;99.90
19330;DHT22;9799;48.214;16.388;2022-11-14T08:22:00;8.70;99.90
19330;DHT22;9799;48.214;16.388;2022-11-14T08:25:22;8.60;99.90
19330;DHT22;9799;48.214;16.388;2022-11-14T08:28:43;8.50;99.90
19330;DHT22;9799;48.214;16.388;2022-11-14T08:32:06;8.60;99.90
19330;DHT22;9799;48.214;16.388;2022-11-14T08:35:28;8.70;99.90
19330;DHT22;9799;48.214;16.388;2022-11-14T08:38:49;8.70;99.90
19330;DHT22;9799;48.214;16.388;2022-11-14T08:42:11;8.90;99.90
19330;DHT22;9799;48.214;16.388;2022-11-14T08:45:32;8.80;99.90
19330;DHT22;9799;48.214;16.388;2022-11-14T08:48:54;8.90;99.90
19330;DHT22;9799;48.214;16.388;2022-11-14T08:52:16;8.90;99.90
19330;DHT22;9799;48.214;16.388;2022-11-14T08:55:42;8.90;99.90
19330;DHT22;9799;48.214;16.388;2022-11-14T08:59:03;8.90;99.90
19330;DHT22;9799;48.214;16.388;2022-11-14T09:02:25;8.80;99.90
19330;DHT22;9799;48.214;16.388;2022-11-14T09:05:51;8.80;99.90
19330;DHT22;9799;48.214;16.388;2022-11-14T09:09:12;8.80;99.90
19330;DHT22;9799;48.214;16.388;2022-11-14T09:12:34;8.90;99.90
19330;DHT22;9799;48.214;16.388;2022-11-14T09:15:56;9.00;99.90
19330;DHT22;9799;48.214;16.388;2022-11-14T09:19:17;9.00;99.90
19330;DHT22;9799;48.214;16.388;2022-11-14T09:22:40;9.10;99.90
19330;DHT22;9799;48.214;16.388;2022-11-14T09:26:03;9.20;99.90
19330;DHT22;9799;48.214;16.388;2022-11-14T09:29:24;9.30;99.90
19330;DHT22;9799;48.214;16.388;2022-11-14T09:32:45;9.40;99.90
19330;DHT22;9799;48.214;16.388;2022-11-14T09:36:10;9.50;99.90
19330;DHT22;9799;48.214;16.388;2022-11-14T09:39:36;9.60;99.90
19330;DHT22;9799;48.214;16.388;2022-11-14T09:43:09;9.70;99.90
19330;DHT22;9799;48.214;16.388;2022-11-14T09:46:37;9.80;99.90
19330;DHT22;9799;48.214;16.388;2022-11-14T09:50:04;9.90;99.90
19330;DHT22;9799;48.214;16.388;2022-11-14T09:53:30;10.00;99.90
19330;DHT22;9799;48.214;16.388;2022-11-14T09:56:54;10.10;99.90
19330;DHT22;9799;48.214;16.388;2022-11-14T10:00:18;10.10;99.90
19330;DHT22;9799;48.214;16.388;2022-11-14T10:03:46;10.20;99.90
19330;DHT22;9799;48.214;16.388;2022-11-14T10:07:21;10.20;99.90
19330;DHT22;9799;48.214;16.388;2022-11-14T10:10:51;10.30;99.90
19330;DHT22;9799;48.214;16.388;2022-11-14T10:14:34;10.40;99.90
19330;DHT22;9799;48.214;16.388;2022-11-14T10:18:18;10.50;99.90
19330;DHT22;9799;48.214;16.388;2022-11-14T10:22:04;10.50;99.90
19330;DHT22;9799;48.214;16.388;2022-11-14T10:25:37;10.60;99.90
19330;DHT22;9799;48.214;16.388;2022-11-14T10:29:20;10.60;99.90
19330;DHT22;9799;48.214;16.388;2022-11-14T10:33:12;10.60;99.90
19330;DHT22;9799;48.214;16.388;2022-11-14T10:36:48;10.50;99.90
19330;DHT22;9799;48.214;16.388;2022-11-14T10:40:17;10.50;99.90
19330;DHT22;9799;48.214;16.388;2022-11-14T10:43:42;10.60;99.90
19330;DHT22;9799;48.214;16.388;2022-11-14T10:47:09;10.60;99.90
19330;DHT22;9799;48.214;16.388;2022-11-14T10:50:39;10.40;99.90
19330;DHT22;9799;48.214;16.388;2022-11-14T10:54:05;10.40;99.90
19330;DHT22;9799;48.214;16.388;2022-11-14T10:57:32;10.30;99.90
19330;DHT22;9799;48.214;16.388;2022-11-14T11:00:55;10.40;99.90
19330;DHT22;9799;48.214;16.388;2022-11-14T11:04:23;10.50;99.90
19330;DHT22;9799;48.214;16.388;2022-11-14T11:07:46;10.40;99.90
19330;DHT22;9799;48.214;16.388;2022-11-14T11:11:26;10.50;99.90
19330;DHT22;9799;48.214;16.388;2022-11-14T11:15:09;10.50;99.90
19330;DHT22;9799;48.214;16.388;2022-11-14T11:18:34;10.50;99.90
19330;DHT22;9799;48.214;16.388;2022-11-14T11:21:56;10.40;99.90
19330;DHT22;9799;48.214;16.388;2022-11-14T11:25:27;10.50;99.90
19330;DHT22;9799;48.214;16.388;2022-11-14T11:29:06;10.60;99.90
19330;DHT22;9799;48.214;16.388;2022-11-14T11:32:28;10.40;99.90
19330;DHT22;9799;48.214;16.388;2022-11-14T11:35:51;10.20;99.90
19330;DHT22;9799;48.214;16.388;2022-11-14T11:39:24;10.20;99.90
19330;DHT22;9799;48.214;16.388;2022-11-14T11:42:56;10.20;99.90
19330;DHT22;9799;48.214;16.388;2022-11-14T11:46:21;10.30;99.90
19330;DHT22;9799;48.214;16.388;2022-11-14T11:49:46;10.50;99.90
19330;DHT22;9799;48.214;16.388;2022-11-14T11:53:16;10.60;99.90
19330;DHT22;9799;48.214;16.388;2022-11-14T11:56:37;10.40;99.90
19330;DHT22;9799;48.214;16.388;2022-11-14T12:00:06;10.40;99.90
19330;DHT22;9799;48.214;16.388;2022-11-14T12:03:27;10.40;99.90
19330;DHT22;9799;48.214;16.388;2022-11-14T12:06:54;10.50;99.90
19330;DHT22;9799;48.214;16.388;2022-11-14T12:10:23;10.30;99.90
19330;DHT22;9799;48.214;16.388;2022-11-14T12:22:06;10.50;99.90
19330;DHT22;9799;48.214;16.388;2022-11-14T12:25:45;10.50;99.90
19330;DHT22;9799;48.214;16.388;2022-11-14T12:29:22;10.50;99.90
19330;DHT22;9799;48.214;16.388;2022-11-14T12:32:52;10.50;99.90
19330;DHT22;9799;48.214;16.388;2022-11-14T12:36:16;10.50;99.90
19330;DHT22;9799;48.214;16.388;2022-11-14T12:39:39;10.60;99.90
19330;DHT22;9799;48.214;16.388;2022-11-14T12:43:02;10.60;99.90
19330;DHT22;9799;48.214;16.388;2022-11-14T12:46:23;10.60;99.90
19330;DHT22;9799;48.214;16.388;2022-11-14T12:50:29;10.60;99.90
19330;DHT22;9799;48.214;16.388;2022-11-14T12:53:56;10.80;99.90
19330;DHT22;9799;48.214;16.388;2022-11-14T12:57:24;10.80;99.90
19330;DHT22;9799;48.214;16.388;2022-11-14T13:01:19;10.90;99.90
19330;DHT22;9799;48.214;16.388;2022-11-14T13:04:56;11.00;99.90
19330;DHT22;9799;48.214;16.388;2022-11-14T13:08:38;11.10;99.90
19330;DHT22;9799;48.214;16.388;2022-11-14T13:12:27;10.90;99.90
19330;DHT22;9799;48.214;16.388;2022-11-14T13:16:21;11.00;99.90
19330;DHT22;9799;48.214;16.388;2022-11-14T13:20:05;11.00;99.90
19330;DHT22;9799;48.214;16.388;2022-11-14T13:24:00;11.00;99.90
19330;DHT22;9799;48.214;16.388;2022-11-14T13:27:27;11.00;99.90
19330;DHT22;9799;48.214;16.388;2022-11-14T13:31:17;11.00;99.90
19330;DHT22;9799;48.214;16.388;2022-11-14T13:34:42;11.00;99.90
19330;DHT22;9799;48.214;16.388;2022-11-14T13:38:31;11.00;99.90
19330;DHT22;9799;48.214;16.388;2022-11-14T13:42:23;11.10;99.90
19330;DHT22;9799;48.214;16.388;2022-11-14T13:45:57;11.10;99.90
19330;DHT22;9799;48.214;16.388;2022-11-14T13:49:31;11.10;99.90
19330;DHT22;9799;48.214;16.388;2022-11-14T13:52:58;10.90;99.90
19330;DHT22;9799;48.214;16.388;2022-11-14T13:56:29;10.70;99.90
19330;DHT22;9799;48.214;16.388;2022-11-14T14:00:04;10.40;99.90
19330;DHT22;9799;48.214;16.388;2022-11-14T14:03:44;10.20;99.90
19330;DHT22;9799;48.214;16.388;2022-11-14T14:07:13;10.00;99.90
19330;DHT22;9799;48.214;16.388;2022-11-14T14:10:42;9.70;99.90
19330;DHT22;9799;48.214;16.388;2022-11-14T14:14:20;9.60;99.90
19330;DHT22;9799;48.214;16.388;2022-11-14T14:17:55;9.40;99.90
19330;DHT22;9799;48.214;16.388;2022-11-14T14:21:30;9.40;99.90
19330;DHT22;9799;48.214;16.388;2022-11-14T14:24:58;9.30;99.90
19330;DHT22;9799;48.214;16.388;2022-11-14T14:28:28;9.10;99.90
19330;DHT22;9799;48.214;16.388;2022-11-14T14:31:50;9.20;99.90
19330;DHT22;9799;48.214;16.388;2022-11-14T14:35:22;9.10;99.90
19330;DHT22;9799;48.214;16.388;2022-11-14T14:38:47;9.00;99.90
19330;DHT22;9799;48.214;16.388;2022-11-14T14:42:10;9.00;99.90
19330;DHT22;9799;48.214;16.388;2022-11-14T14:45:43;9.00;99.90
19330;DHT22;9799;48.214;16.388;2022-11-14T14:49:06;9.00;99.90
19330;DHT22;9799;48.214;16.388;2022-11-14T14:52:28;9.00;99.90
19330;DHT22;9799;48.214;16.388;2022-11-14T14:55:54;8.90;99.90
19330;DHT22;9799;48.214;16.388;2022-11-14T14:59:16;8.90;99.90
19330;DHT22;9799;48.214;16.388;2022-11-14T15:02:39;8.90;99.90
19330;DHT22;9799;48.214;16.388;2022-11-14T15:06:01;9.00;99.90
19330;DHT22;9799;48.214;16.388;2022-11-14T15:09:25;9.00;99.90
19330;DHT22;9799;48.214;16.388;2022-11-14T15:12:50;9.00;99.90
19330;DHT22;9799;48.214;16.388;2022-11-14T15:16:13;9.00;99.90
19330;DHT22;9799;48.214;16.388;2022-11-14T15:19:38;8.90;99.90
19330;DHT22;9799;48.214;16.388;2022-11-14T15:23:05;8.90;99.90
19330;DHT22;9799;48.214;16.388;2022-11-14T15:26:28;8.90;99.90
19330;DHT22;9799;48.214;16.388;2022-11-14T15:30:00;8.90;99.90
19330;DHT22;9799;48.214;16.388;2022-11-14T15:33:27;8.90;99.90
19330;DHT22;9799;48.214;16.388;2022-11-14T15:37:19;8.90;99.90
19330;DHT22;9799;48.214;16.388;2022-11-14T15:40:41;8.90;99.90
19330;DHT22;9799;48.214;16.388;2022-11-14T15:44:03;8.90;99.90
19330;DHT22;9799;48.214;16.388;2022-11-14T15:47:28;9.00;99.90
19330;DHT22;9799;48.214;16.388;2022-11-14T15:50:51;9.00;99.90
19330;DHT22;9799;48.214;16.388;2022-11-14T15:54:27;9.10;99.90
19330;DHT22;9799;48.214;16.388;2022-11-14T15:57:49;9.00;99.90
19330;DHT22;9799;48.214;16.388;2022-11-14T16:01:14;9.00;99.90
19330;DHT22;9799;48.214;16.388;2022-11-14T16:04:39;9.10;99.90
19330;DHT22;9799;48.214;16.388;2022-11-14T16:08:00;9.00;99.90
19330;DHT22;9799;48.214;16.388;2022-11-14T16:11:21;9.00;99.90
19330;DHT22;9799;48.214;16.388;2022-11-14T16:14:43;9.00;99.90
19330;DHT22;9799;48.214;16.388;2022-11-14T16:18:05;9.10;99.90
19330;DHT22;9799;48.214;16.388;2022-11-14T16:21:28;9.10;99.90
19330;DHT22;9799;48.214;16.388;2022-11-14T16:24:50;9.00;99.90
19330;DHT22;9799;48.214;16.388;2022-11-14T16:28:12;9.00;99.90
19330;DHT22;9799;48.214;16.388;2022-11-14T16:31:34;8.90;99.90
19330;DHT22;9799;48.214;16.388;2022-11-14T16:34:55;8.90;99.90
19330;DHT22;9799;48.214;16.388;2022-11-14T16:38:18;8.90;99.90
19330;DHT22;9799;48.214;16.388;2022-11-14T16:41:39;8.90;99.90
19330;DHT22;9799;48.214;16.388;2022-11-14T16:45:01;9.00;99.90
19330;DHT22;9799;48.214;16.388;2022-11-14T16:48:22;8.90;99.90
19330;DHT22;9799;48.214;16.388;2022-11-14T16:51:46;8.90;99.90
19330;DHT22;9799;48.214;16.388;2022-11-14T16:55:10;9.00;99.90
19330;DHT22;9799;48.214;16.388;2022-11-14T16:58:32;9.00;99.90
19330;DHT22;9799;48.214;16.388;2022-11-14T17:01:53;8.90;99.90
19330;DHT22;9799;48.214;16.388;2022-11-14T17:05:16;8.80;99.90
19330;DHT22;9799;48.214;16.388;2022-11-14T17:08:37;8.80;99.90
19330;DHT22;9799;48.214;16.388;2022-11-14T17:12:00;8.80;99.90
19330;DHT22;9799;48.214;16.388;2022-11-14T17:15:22;8.80;99.90
19330;DHT22;9799;48.214;16.388;2022-11-14T17:18:49;8.80;99.90
19330;DHT22;9799;48.214;16.388;2022-11-14T17:22:12;8.80;99.90
19330;DHT22;9799;48.214;16.388;2022-11-14T17:25:33;8.80;99.90
19330;DHT22;9799;48.214;16.388;2022-11-14T17:28:58;8.90;99.90
19330;DHT22;9799;48.214;16.388;2022-11-14T17:32:22;9.00;99.90
19330;DHT22;9799;48.214;16.388;2022-11-14T17:35:44;9.10;99.90
19330;DHT22;9799;48.214;16.388;2022-11-14T17:39:06;9.00;99.90
19330;DHT22;9799;48.214;16.388;2022-11-14T17:42:31;8.90;99.90
19330;DHT22;9799;48.214;16.388;2022-11-14T17:45:56;8.90;99.90
19330;DHT22;9799;48.214;16.388;2022-11-14T17:49:18;8.90;99.90
19330;DHT22;9799;48.214;16.388;2022-11-14T17:52:40;8.80;99.90
19330;DHT22;9799;48.214;16.388;2022-11-14T17:56:02;8.80;99.90
19330;DHT22;9799;48.214;16.388;2022-11-14T17:59:24;8.80;99.90
19330;DHT22;9799;48.214;16.388;2022-11-14T18:02:48;8.70;99.90
19330;DHT22;9799;48.214;16.388;2022-11-14T18:06:11;8.70;99.90
19330;DHT22;9799;48.214;16.388;2022-11-14T18:09:35;8.80;99.90
19330;DHT22;9799;48.214;16.388;2022-11-14T18:12:59;8.80;99.90
19330;DHT22;9799;48.214;16.388;2022-11-14T18:16:24;8.70;99.90
19330;DHT22;9799;48.214;16.388;2022-11-14T18:19:47;8.70;99.90
19330;DHT22;9799;48.214;16.388;2022-11-14T18:23:11;8.70;99.90
19330;DHT22;9799;48.214;16.388;2022-11-14T18:26:33;8.70;99.90
19330;DHT22;9799;48.214;16.388;2022-11-14T18:29:55;8.70;99.90
19330;DHT22;9799;48.214;16.388;2022-11-14T18:33:19;8.70;99.90
19330;DHT22;9799;48.214;16.388;2022-11-14T18:36:43;8.70;99.90
19330;DHT22;9799;48.214;16.388;2022-11-14T18:40:07;8.70;99.90
19330;DHT22;9799;48.214;16.388;2022-11-14T18:43:30;8.70;99.90
19330;DHT22;9799;48.214;16.388;2022-11-14T18:46:53;8.60;99.90
19330;DHT22;9799;48.214;16.388;2022-11-14T18:50:16;8.60;99.90
19330;DHT22;9799;48.214;16.388;2022-11-14T18:53:42;8.60;99.90
19330;DHT22;9799;48.214;16.388;2022-11-14T18:57:05;8.50;99.90
19330;DHT22;9799;48.214;16.388;2022-11-14T19:00:29;8.60;99.90
19330;DHT22;9799;48.214;16.388;2022-11-14T19:03:54;8.50;99.90
19330;DHT22;9799;48.214;16.388;2022-11-14T19:07:17;8.60;99.90
19330;DHT22;9799;48.214;16.388;2022-11-14T19:10:41;8.60;99.90
19330;DHT22;9799;48.214;16.388;2022-11-14T19:14:04;8.70;99.90
19330;DHT22;9799;48.214;16.388;2022-11-14T19:17:27;8.60;99.90
19330;DHT22;9799;48.214;16.388;2022-11-14T19:20:55;8.40;99.90
19330;DHT22;9799;48.214;16.388;2022-11-14T19:24:17;8.40;99.90
19330;DHT22;9799;48.214;16.388;2022-11-14T19:27:48;8.30;99.90
19330;DHT22;9799;48.214;16.388;2022-11-14T19:31:11;8.30;99.90
19330;DHT22;9799;48.214;16.388;2022-11-14T19:34:32;8.20;99.90
19330;DHT22;9799;48.214;16.388;2022-11-14T19:37:54;8.20;99.90
19330;DHT22;9799;48.214;16.388;2022-11-14T19:41:18;8.20;99.90
19330;DHT22;9799;48.214;16.388;2022-11-14T19:44:42;8.20;99.90
19330;DHT22;9799;48.214;16.388;2022-11-14T19:48:05;8.10;99.90
19330;DHT22;9799;48.214;16.388;2022-11-14T19:51:28;8.10;99.90
19330;DHT22;9799;48.214;16.388;2022-11-14T19:54:53;8.00;99.90
19330;DHT22;9799;48.214;16.388;2022-11-14T19:58:16;8.00;99.90
19330;DHT22;9799;48.214;16.388;2022-11-14T20:01:39;8.20;99.90
19330;DHT22;9799;48.214;16.388;2022-11-14T20:05:02;8.00;99.90
19330;DHT22;9799;48.214;16.388;2022-11-14T20:08:25;8.00;99.90
19330;DHT22;9799;48.214;16.388;2022-11-14T20:11:47;7.90;99.90
19330;DHT22;9799;48.214;16.388;2022-11-14T20:15:10;7.90;99.90
19330;DHT22;9799;48.214;16.388;2022-11-14T20:18:37;7.90;99.90
19330;DHT22;9799;48.214;16.388;2022-11-14T20:22:01;7.90;99.90
19330;DHT22;9799;48.214;16.388;2022-11-14T20:25:25;7.90;99.90
19330;DHT22;9799;48.214;16.388;2022-11-14T20:28:49;7.90;99.90
19330;DHT22;9799;48.214;16.388;2022-11-14T20:32:13;7.90;99.90
19330;DHT22;9799;48.214;16.388;2022-11-14T20:35:37;7.90;99.90
19330;DHT22;9799;48.214;16.388;2022-11-14T20:38:59;8.00;99.90
19330;DHT22;9799;48.214;16.388;2022-11-14T20:42:21;8.10;99.90
19330;DHT22;9799;48.214;16.388;2022-11-14T20:45:54;8.00;99.90
19330;DHT22;9799;48.214;16.388;2022-11-14T20:49:16;8.00;99.90
19330;DHT22;9799;48.214;16.388;2022-11-14T20:52:41;8.00;99.90
19330;DHT22;9799;48.214;16.388;2022-11-14T20:56:03;8.10;99.90
19330;DHT22;9799;48.214;16.388;2022-11-14T20:59:26;8.30;99.90
19330;DHT22;9799;48.214;16.388;2022-11-14T21:02:47;8.30;99.90
19330;DHT22;9799;48.214;16.388;2022-11-14T21:06:10;8.20;99.90
19330;DHT22;9799;48.214;16.388;2022-11-14T21:09:35;8.20;99.90
19330;DHT22;9799;48.214;16.388;2022-11-14T21:12:56;8.00;99.90
19330;DHT22;9799;48.214;16.388;2022-11-14T21:16:37;7.80;99.90
19330;DHT22;9799;48.214;16.388;2022-11-14T21:19:59;7.60;99.90
19330;DHT22;9799;48.214;16.388;2022-11-14T21:23:21;7.70;99.90
19330;DHT22;9799;48.214;16.388;2022-11-14T21:26:43;7.70;99.90
19330;DHT22;9799;48.214;16.388;2022-11-14T21:30:06;7.70;99.90
19330;DHT22;9799;48.214;16.388;2022-11-14T21:33:29;7.70;99.90
19330;DHT22;9799;48.214;16.388;2022-11-14T21:36:51;7.80;99.90
19330;DHT22;9799;48.214;16.388;2022-11-14T21:40:12;7.80;99.90
19330;DHT22;9799;48.214;16.388;2022-11-14T21:43:35;7.80;99.90
19330;DHT22;9799;48.214;16.388;2022-11-14T21:46:56;7.70;99.90
19330;DHT22;9799;48.214;16.388;2022-11-14T21:50:17;7.60;99.90
19330;DHT22;9799;48.214;16.388;2022-11-14T21:53:39;7.60;99.90
19330;DHT22;9799;48.214;16.388;2022-11-14T21:57:01;7.50;99.90